sensor_id;sensor_type;location;lat;lon;timestamp;temperature;humidity
32965;DHT22;19317;48.226;11.686;2023-05-31T00:00:55;16.80;99.90
32965;DHT22;19317;48.226;11.686;2023-05-31T00:05:46;16.60;99.90
32965;DHT22;19317;48.226;11.686;2023-05-31T00:10:36;16.40;99.90
32965;DHT22;19317;48.226;11.686;2023-05-31T00:15:27;16.30;99.40
32965;DHT22;19317;48.226;11.686;2023-05-31T00:20:17;16.30;99.40
32965;DHT22;19317;48.226;11.686;2023-05-31T00:25:08;16.30;99.00
32965;DHT22;19317;48.226;11.686;2023-05-31T00:29:58;15.80;99.00
32965;DHT22;19317;48.226;11.686;2023-05-31T00:34:49;15.90;98.70
32965;DHT22;19317;48.226;11.686;2023-05-31T00:39:39;15.70;98.70
32965;DHT22;19317;48.226;11.686;2023-05-31T00:44:30;15.80;98.70
32965;DHT22;19317;48.226;11.686;2023-05-31T00:49:20;16.10;98.60
32965;DHT22;19317;48.226;11.686;2023-05-31T00:54:11;16.10;98.40
32965;DHT22;19317;48.226;11.686;2023-05-31T00:59:01;15.90;98.50
32965;DHT22;19317;48.226;11.686;2023-05-31T01:03:53;16.10;98.40
32965;DHT22;19317;48.226;11.686;2023-05-31T01:08:44;15.90;98.40
32965;DHT22;19317;48.226;11.686;2023-05-31T01:13:47;15.50;98.90
32965;DHT22;19317;48.226;11.686;2023-05-31T01:18:44;15.50;98.80
32965;DHT22;19317;48.226;11.686;2023-05-31T01:28:50;15.70;98.50
32965;DHT22;19317;48.226;11.686;2023-05-31T01:33:41;15.50;98.90
32965;DHT22;19317;48.226;11.686;2023-05-31T01:38:33;15.50;98.90
32965;DHT22;19317;48.226;11.686;2023-05-31T01:43:25;15.50;98.80
32965;DHT22;19317;48.226;11.686;2023-05-31T01:48:16;15.50;98.40
32965;DHT22;19317;48.226;11.686;2023-05-31T01:53:07;15.40;99.00
32965;DHT22;19317;48.226;11.686;2023-05-31T01:57:59;15.30;98.80
32965;DHT22;19317;48.226;11.686;2023-05-31T02:02:51;14.80;99.80
32965;DHT22;19317;48.226;11.686;2023-05-31T02:07:42;15.10;99.30
32965;DHT22;19317;48.226;11.686;2023-05-31T02:12:33;15.20;99.20
32965;DHT22;19317;48.226;11.686;2023-05-31T02:17:23;15.10;98.80
32965;DHT22;19317;48.226;11.686;2023-05-31T02:22:14;15.20;98.40
32965;DHT22;19317;48.226;11.686;2023-05-31T02:27:04;15.30;98.70
32965;DHT22;19317;48.226;11.686;2023-05-31T02:31:55;15.20;98.50
32965;DHT22;19317;48.226;11.686;2023-05-31T02:36:45;15.10;98.90
32965;DHT22;19317;48.226;11.686;2023-05-31T02:41:36;15.30;98.40
32965;DHT22;19317;48.226;11.686;2023-05-31T02:46:26;15.10;98.70
32965;DHT22;19317;48.226;11.686;2023-05-31T02:51:17;15.10;98.80
32965;DHT22;19317;48.226;11.686;2023-05-31T02:56:07;15.10;98.80
32965;DHT22;19317;48.226;11.686;2023-05-31T03:00:57;14.90;99.20
32965;DHT22;19317;48.226;11.686;2023-05-31T03:05:48;14.80;99.30
32965;DHT22;19317;48.226;11.686;2023-05-31T03:10:39;14.90;99.30
32965;DHT22;19317;48.226;11.686;2023-05-31T03:15:29;14.70;99.10
32965;DHT22;19317;48.226;11.686;2023-05-31T03:20:20;14.70;99.40
32965;DHT22;19317;48.226;11.686;2023-05-31T03:25:10;14.60;99.50
32965;DHT22;19317;48.226;11.686;2023-05-31T03:30:01;14.60;99.70
32965;DHT22;19317;48.226;11.686;2023-05-31T03:34:51;14.40;99.90
32965;DHT22;19317;48.226;11.686;2023-05-31T03:39:42;14.20;99.90
32965;DHT22;19317;48.226;11.686;2023-05-31T03:44:32;14.20;99.90
32965;DHT22;19317;48.226;11.686;2023-05-31T03:49:23;14.10;99.90
32965;DHT22;19317;48.226;11.686;2023-05-31T03:54:13;14.20;99.90
32965;DHT22;19317;48.226;11.686;2023-05-31T03:59:03;14.00;99.90
32965;DHT22;19317;48.226;11.686;2023-05-31T04:03:54;14.10;99.90
32965;DHT22;19317;48.226;11.686;2023-05-31T04:08:44;13.90;99.90
32965;DHT22;19317;48.226;11.686;2023-05-31T04:13:35;13.80;99.90
32965;DHT22;19317;48.226;11.686;2023-05-31T04:18:25;13.80;99.90
32965;DHT22;19317;48.226;11.686;2023-05-31T04:23:16;13.90;99.90
32965;DHT22;19317;48.226;11.686;2023-05-31T04:28:06;14.10;99.90
32965;DHT22;19317;48.226;11.686;2023-05-31T04:32:57;14.20;99.90
32965;DHT22;19317;48.226;11.686;2023-05-31T04:37:47;14.30;99.90
32965;DHT22;19317;48.226;11.686;2023-05-31T04:42:38;14.50;99.90
32965;DHT22;19317;48.226;11.686;2023-05-31T04:47:28;14.40;99.90
32965;DHT22;19317;48.226;11.686;2023-05-31T04:52:19;14.30;99.90
32965;DHT22;19317;48.226;11.686;2023-05-31T04:57:09;14.10;99.90
32965;DHT22;19317;48.226;11.686;2023-05-31T05:02:00;14.10;99.90
32965;DHT22;19317;48.226;11.686;2023-05-31T05:06:50;14.10;99.90
32965;DHT22;19317;48.226;11.686;2023-05-31T05:11:40;14.40;99.90
32965;DHT22;19317;48.226;11.686;2023-05-31T05:16:31;14.50;99.90
32965;DHT22;19317;48.226;11.686;2023-05-31T05:21:21;14.50;99.90
32965;DHT22;19317;48.226;11.686;2023-05-31T05:26:12;14.50;99.90
32965;DHT22;19317;48.226;11.686;2023-05-31T05:31:02;14.70;99.90
32965;DHT22;19317;48.226;11.686;2023-05-31T05:35:53;14.90;99.90
32965;DHT22;19317;48.226;11.686;2023-05-31T05:40:43;15.00;99.90
32965;DHT22;19317;48.226;11.686;2023-05-31T05:45:34;14.90;99.90
32965;DHT22;19317;48.226;11.686;2023-05-31T05:50:24;15.00;99.90
32965;DHT22;19317;48.226;11.686;2023-05-31T05:55:15;15.20;99.90
32965;DHT22;19317;48.226;11.686;2023-05-31T06:00:06;15.30;99.90
32965;DHT22;19317;48.226;11.686;2023-05-31T06:04:56;15.90;99.90
32965;DHT22;19317;48.226;11.686;2023-05-31T06:09:47;15.80;99.90
32965;DHT22;19317;48.226;11.686;2023-05-31T06:14:37;15.70;99.90
32965;DHT22;19317;48.226;11.686;2023-05-31T06:19:28;15.60;99.90
32965;DHT22;19317;48.226;11.686;2023-05-31T06:24:18;15.80;99.90
32965;DHT22;19317;48.226;11.686;2023-05-31T06:29:09;15.80;99.90
32965;DHT22;19317;48.226;11.686;2023-05-31T06:33:59;15.80;99.90
32965;DHT22;19317;48.226;11.686;2023-05-31T06:38:49;16.00;99.90
32965;DHT22;19317;48.226;11.686;2023-05-31T06:43:40;16.10;99.90
32965;DHT22;19317;48.226;11.686;2023-05-31T06:48:30;16.00;99.90
32965;DHT22;19317;48.226;11.686;2023-05-31T06:53:21;16.00;99.90
32965;DHT22;19317;48.226;11.686;2023-05-31T06:58:14;16.20;99.90
32965;DHT22;19317;48.226;11.686;2023-05-31T07:03:05;16.40;99.90
32965;DHT22;19317;48.226;11.686;2023-05-31T07:07:55;16.40;99.90
32965;DHT22;19317;48.226;11.686;2023-05-31T07:12:46;16.60;99.90
32965;DHT22;19317;48.226;11.686;2023-05-31T07:17:36;16.70;99.90
32965;DHT22;19317;48.226;11.686;2023-05-31T07:22:27;16.80;99.90
32965;DHT22;19317;48.226;11.686;2023-05-31T07:27:18;17.10;99.90
32965;DHT22;19317;48.226;11.686;2023-05-31T07:32:09;17.10;99.90
32965;DHT22;19317;48.226;11.686;2023-05-31T07:36:59;17.10;99.90
32965;DHT22;19317;48.226;11.686;2023-05-31T07:41:50;17.30;99.90
32965;DHT22;19317;48.226;11.686;2023-05-31T07:46:40;17.30;99.90
32965;DHT22;19317;48.226;11.686;2023-05-31T07:51:31;17.40;99.90
32965;DHT22;19317;48.226;11.686;2023-05-31T07:56:22;17.40;99.90
32965;DHT22;19317;48.226;11.686;2023-05-31T08:01:12;17.70;99.90
32965;DHT22;19317;48.226;11.686;2023-05-31T08:06:03;17.70;99.90
32965;DHT22;19317;48.226;11.686;2023-05-31T08:10:53;17.80;99.90
32965;DHT22;19317;48.226;11.686;2023-05-31T08:15:43;18.00;99.90
32965;DHT22;19317;48.226;11.686;2023-05-31T08:20:34;18.20;99.90
32965;DHT22;19317;48.226;11.686;2023-05-31T08:25:25;18.30;99.90
32965;DHT22;19317;48.226;11.686;2023-05-31T08:30:15;18.50;99.90
32965;DHT22;19317;48.226;11.686;2023-05-31T08:35:06;18.40;99.70
32965;DHT22;19317;48.226;11.686;2023-05-31T08:39:57;18.60;99.80
32965;DHT22;19317;48.226;11.686;2023-05-31T08:44:47;18.60;98.40
32965;DHT22;19317;48.226;11.686;2023-05-31T08:49:39;18.90;99.90
32965;DHT22;19317;48.226;11.686;2023-05-31T08:54:30;19.00;99.90
32965;DHT22;19317;48.226;11.686;2023-05-31T08:59:21;19.10;99.00
32965;DHT22;19317;48.226;11.686;2023-05-31T09:04:13;19.20;98.70
32965;DHT22;19317;48.226;11.686;2023-05-31T09:09:04;19.30;98.10
32965;DHT22;19317;48.226;11.686;2023-05-31T09:13:55;19.40;99.00
32965;DHT22;19317;48.226;11.686;2023-05-31T09:18:45;19.50;98.70
32965;DHT22;19317;48.226;11.686;2023-05-31T09:23:36;19.60;99.80
32965;DHT22;19317;48.226;11.686;2023-05-31T09:28:27;19.90;99.00
32965;DHT22;19317;48.226;11.686;2023-05-31T09:33:18;19.70;96.60
32965;DHT22;19317;48.226;11.686;2023-05-31T09:38:09;19.80;98.10
32965;DHT22;19317;48.226;11.686;2023-05-31T09:43:00;20.20;97.80
32965;DHT22;19317;48.226;11.686;2023-05-31T09:47:51;20.00;95.60
32965;DHT22;19317;48.226;11.686;2023-05-31T09:52:44;20.00;96.40
32965;DHT22;19317;48.226;11.686;2023-05-31T09:57:37;20.20;97.80
32965;DHT22;19317;48.226;11.686;2023-05-31T10:02:28;20.20;96.40
32965;DHT22;19317;48.226;11.686;2023-05-31T10:07:20;20.30;95.80
32965;DHT22;19317;48.226;11.686;2023-05-31T10:12:11;20.40;96.00
32965;DHT22;19317;48.226;11.686;2023-05-31T10:17:05;20.30;96.20
32965;DHT22;19317;48.226;11.686;2023-05-31T10:21:58;20.40;95.60
32965;DHT22;19317;48.226;11.686;2023-05-31T10:27:09;20.50;96.40
32965;DHT22;19317;48.226;11.686;2023-05-31T10:32:10;20.60;95.30
32965;DHT22;19317;48.226;11.686;2023-05-31T10:37:03;20.90;96.60
32965;DHT22;19317;48.226;11.686;2023-05-31T10:47:07;20.90;94.90
32965;DHT22;19317;48.226;11.686;2023-05-31T10:52:08;21.00;93.20
32965;DHT22;19317;48.226;11.686;2023-05-31T10:56:59;21.00;95.50
32965;DHT22;19317;48.226;11.686;2023-05-31T11:01:52;21.20;95.00
32965;DHT22;19317;48.226;11.686;2023-05-31T11:06:43;21.20;95.80
32965;DHT22;19317;48.226;11.686;2023-05-31T11:16:25;21.40;93.60
32965;DHT22;19317;48.226;11.686;2023-05-31T11:21:50;21.30;93.50
32965;DHT22;19317;48.226;11.686;2023-05-31T11:26:51;21.40;94.70
32965;DHT22;19317;48.226;11.686;2023-05-31T11:36:44;21.70;95.50
32965;DHT22;19317;48.226;11.686;2023-05-31T11:41:34;21.70;94.10
32965;DHT22;19317;48.226;11.686;2023-05-31T11:46:26;21.80;94.80
32965;DHT22;19317;48.226;11.686;2023-05-31T11:51:16;21.70;94.70
32965;DHT22;19317;48.226;11.686;2023-05-31T11:56:07;21.90;96.00
32965;DHT22;19317;48.226;11.686;2023-05-31T12:00:58;22.00;95.20
32965;DHT22;19317;48.226;11.686;2023-05-31T12:05:49;22.00;94.80
32965;DHT22;19317;48.226;11.686;2023-05-31T12:10:40;22.00;93.80
32965;DHT22;19317;48.226;11.686;2023-05-31T12:15:31;22.10;93.60
32965;DHT22;19317;48.226;11.686;2023-05-31T12:20:22;22.20;94.80
32965;DHT22;19317;48.226;11.686;2023-05-31T12:25:12;22.10;93.80
32965;DHT22;19317;48.226;11.686;2023-05-31T12:30:03;22.30;93.90
32965;DHT22;19317;48.226;11.686;2023-05-31T12:35:04;22.50;94.90
32965;DHT22;19317;48.226;11.686;2023-05-31T12:40:14;22.50;94.60
32965;DHT22;19317;48.226;11.686;2023-05-31T12:45:05;22.30;93.60
32965;DHT22;19317;48.226;11.686;2023-05-31T12:50:02;22.50;94.00
32965;DHT22;19317;48.226;11.686;2023-05-31T12:54:52;22.70;94.40
32965;DHT22;19317;48.226;11.686;2023-05-31T12:59:43;22.60;93.20
32965;DHT22;19317;48.226;11.686;2023-05-31T13:04:33;22.90;94.70
32965;DHT22;19317;48.226;11.686;2023-05-31T13:09:24;23.00;94.20
32965;DHT22;19317;48.226;11.686;2023-05-31T13:14:16;23.00;94.60
32965;DHT22;19317;48.226;11.686;2023-05-31T13:19:07;23.10;95.30
32965;DHT22;19317;48.226;11.686;2023-05-31T13:23:58;23.10;94.00
32965;DHT22;19317;48.226;11.686;2023-05-31T13:28:49;23.40;94.70
32965;DHT22;19317;48.226;11.686;2023-05-31T13:33:40;23.60;94.60
32965;DHT22;19317;48.226;11.686;2023-05-31T13:38:30;23.50;93.70
32965;DHT22;19317;48.226;11.686;2023-05-31T13:43:22;23.50;92.20
32965;DHT22;19317;48.226;11.686;2023-05-31T13:48:12;23.50;92.60
32965;DHT22;19317;48.226;11.686;2023-05-31T13:53:03;23.60;92.50
32965;DHT22;19317;48.226;11.686;2023-05-31T13:57:53;23.60;92.20
32965;DHT22;19317;48.226;11.686;2023-05-31T14:02:43;23.70;91.30
32965;DHT22;19317;48.226;11.686;2023-05-31T14:07:34;24.00;91.60
32965;DHT22;19317;48.226;11.686;2023-05-31T14:12:24;23.80;91.80
32965;DHT22;19317;48.226;11.686;2023-05-31T14:17:15;24.00;91.40
32965;DHT22;19317;48.226;11.686;2023-05-31T14:22:05;23.80;89.50
32965;DHT22;19317;48.226;11.686;2023-05-31T14:26:56;24.10;89.80
32965;DHT22;19317;48.226;11.686;2023-05-31T14:31:46;23.90;90.40
32965;DHT22;19317;48.226;11.686;2023-05-31T14:36:37;24.10;90.30
32965;DHT22;19317;48.226;11.686;2023-05-31T14:41:27;24.70;89.80
32965;DHT22;19317;48.226;11.686;2023-05-31T14:46:18;24.60;88.20
32965;DHT22;19317;48.226;11.686;2023-05-31T14:51:08;24.30;86.90
32965;DHT22;19317;48.226;11.686;2023-05-31T14:55:58;24.30;86.80
32965;DHT22;19317;48.226;11.686;2023-05-31T15:00:49;24.40;86.70
32965;DHT22;19317;48.226;11.686;2023-05-31T15:05:40;24.80;88.50
32965;DHT22;19317;48.226;11.686;2023-05-31T15:10:30;24.80;87.30
32965;DHT22;19317;48.226;11.686;2023-05-31T15:15:20;24.70;88.80
32965;DHT22;19317;48.226;11.686;2023-05-31T15:20:11;25.20;88.90
32965;DHT22;19317;48.226;11.686;2023-05-31T15:25:01;25.00;89.40
32965;DHT22;19317;48.226;11.686;2023-05-31T15:29:52;25.40;90.00
32965;DHT22;19317;48.226;11.686;2023-05-31T15:34:42;25.00;90.60
32965;DHT22;19317;48.226;11.686;2023-05-31T15:39:33;25.30;89.60
32965;DHT22;19317;48.226;11.686;2023-05-31T15:44:23;25.10;90.60
32965;DHT22;19317;48.226;11.686;2023-05-31T15:49:14;25.30;89.60
32965;DHT22;19317;48.226;11.686;2023-05-31T15:54:04;25.30;87.80
32965;DHT22;19317;48.226;11.686;2023-05-31T15:58:55;25.20;86.40
32965;DHT22;19317;48.226;11.686;2023-05-31T16:03:45;25.60;85.80
32965;DHT22;19317;48.226;11.686;2023-05-31T16:08:36;25.50;87.30
32965;DHT22;19317;48.226;11.686;2023-05-31T16:13:26;25.50;88.20
32965;DHT22;19317;48.226;11.686;2023-05-31T16:18:17;25.80;88.10
32965;DHT22;19317;48.226;11.686;2023-05-31T16:23:07;25.90;87.60
32965;DHT22;19317;48.226;11.686;2023-05-31T16:27:58;25.70;86.80
32965;DHT22;19317;48.226;11.686;2023-05-31T16:32:48;25.70;87.20
32965;DHT22;19317;48.226;11.686;2023-05-31T16:37:39;25.70;86.90
32965;DHT22;19317;48.226;11.686;2023-05-31T16:42:29;25.90;86.50
32965;DHT22;19317;48.226;11.686;2023-05-31T16:47:19;26.00;86.80
32965;DHT22;19317;48.226;11.686;2023-05-31T16:52:10;26.00;87.40
32965;DHT22;19317;48.226;11.686;2023-05-31T16:57:00;26.20;88.40
32965;DHT22;19317;48.226;11.686;2023-05-31T17:01:51;26.10;88.30
32965;DHT22;19317;48.226;11.686;2023-05-31T17:06:41;26.00;87.00
32965;DHT22;19317;48.226;11.686;2023-05-31T17:11:32;26.00;87.80
32965;DHT22;19317;48.226;11.686;2023-05-31T17:16:23;25.80;87.70
32965;DHT22;19317;48.226;11.686;2023-05-31T17:21:14;25.60;88.00
32965;DHT22;19317;48.226;11.686;2023-05-31T17:26:04;25.50;88.50
32965;DHT22;19317;48.226;11.686;2023-05-31T17:30:55;25.30;89.10
32965;DHT22;19317;48.226;11.686;2023-05-31T17:35:45;25.10;89.70
32965;DHT22;19317;48.226;11.686;2023-05-31T17:40:36;25.20;90.10
32965;DHT22;19317;48.226;11.686;2023-05-31T17:45:26;25.40;90.50
32965;DHT22;19317;48.226;11.686;2023-05-31T17:50:17;25.50;90.70
32965;DHT22;19317;48.226;11.686;2023-05-31T17:55:08;25.20;90.60
32965;DHT22;19317;48.226;11.686;2023-05-31T17:59:59;24.80;91.00
32965;DHT22;19317;48.226;11.686;2023-05-31T18:04:49;24.70;91.60
32965;DHT22;19317;48.226;11.686;2023-05-31T18:09:40;24.50;91.60
32965;DHT22;19317;48.226;11.686;2023-05-31T18:14:30;24.50;92.00
32965;DHT22;19317;48.226;11.686;2023-05-31T18:19:21;24.30;91.70
32965;DHT22;19317;48.226;11.686;2023-05-31T18:24:12;24.10;91.90
32965;DHT22;19317;48.226;11.686;2023-05-31T18:29:03;24.40;91.90
32965;DHT22;19317;48.226;11.686;2023-05-31T18:33:53;24.40;92.00
32965;DHT22;19317;48.226;11.686;2023-05-31T18:38:44;24.20;92.60
32965;DHT22;19317;48.226;11.686;2023-05-31T18:43:35;24.20;92.70
32965;DHT22;19317;48.226;11.686;2023-05-31T18:48:25;24.10;92.80
32965;DHT22;19317;48.226;11.686;2023-05-31T18:53:16;24.10;93.10
32965;DHT22;19317;48.226;11.686;2023-05-31T18:58:06;23.90;93.40
32965;DHT22;19317;48.226;11.686;2023-05-31T19:02:57;23.90;93.30
32965;DHT22;19317;48.226;11.686;2023-05-31T19:07:47;23.80;93.40
32965;DHT22;19317;48.226;11.686;2023-05-31T19:12:38;23.50;94.00
32965;DHT22;19317;48.226;11.686;2023-05-31T19:17:28;23.50;94.00
32965;DHT22;19317;48.226;11.686;2023-05-31T19:22:18;23.50;94.00
32965;DHT22;19317;48.226;11.686;2023-05-31T19:27:09;23.40;94.10
32965;DHT22;19317;48.226;11.686;2023-05-31T19:31:59;23.20;94.40
32965;DHT22;19317;48.226;11.686;2023-05-31T19:36:50;23.10;94.60
32965;DHT22;19317;48.226;11.686;2023-05-31T19:41:40;23.00;94.80
32965;DHT22;19317;48.226;11.686;2023-05-31T19:46:31;22.90;95.10
32965;DHT22;19317;48.226;11.686;2023-05-31T19:51:21;22.90;95.20
32965;DHT22;19317;48.226;11.686;2023-05-31T19:56:12;22.80;95.30
32965;DHT22;19317;48.226;11.686;2023-05-31T20:01:02;22.70;95.70
32965;DHT22;19317;48.226;11.686;2023-05-31T20:05:53;22.50;96.20
32965;DHT22;19317;48.226;11.686;2023-05-31T20:10:43;22.10;96.60
32965;DHT22;19317;48.226;11.686;2023-05-31T20:15:34;22.10;97.10
32965;DHT22;19317;48.226;11.686;2023-05-31T20:20:24;21.90;97.40
32965;DHT22;19317;48.226;11.686;2023-05-31T20:25:15;22.00;97.70
32965;DHT22;19317;48.226;11.686;2023-05-31T20:30:06;21.70;97.80
32965;DHT22;19317;48.226;11.686;2023-05-31T20:34:56;21.60;98.10
32965;DHT22;19317;48.226;11.686;2023-05-31T20:39:47;21.50;98.00
32965;DHT22;19317;48.226;11.686;2023-05-31T20:44:37;20.90;98.60
32965;DHT22;19317;48.226;11.686;2023-05-31T20:49:28;20.40;99.50
32965;DHT22;19317;48.226;11.686;2023-05-31T20:54:18;20.60;99.10
32965;DHT22;19317;48.226;11.686;2023-05-31T20:59:08;20.50;99.50
32965;DHT22;19317;48.226;11.686;2023-05-31T21:03:59;20.60;99.60
32965;DHT22;19317;48.226;11.686;2023-05-31T21:08:49;20.90;99.50
32965;DHT22;19317;48.226;11.686;2023-05-31T21:13:40;20.80;99.40
32965;DHT22;19317;48.226;11.686;2023-05-31T21:18:30;20.80;99.70
32965;DHT22;19317;48.226;11.686;2023-05-31T21:23:21;20.70;99.70
32965;DHT22;19317;48.226;11.686;2023-05-31T21:28:11;20.70;99.80
32965;DHT22;19317;48.226;11.686;2023-05-31T21:33:02;20.60;99.80
32965;DHT22;19317;48.226;11.686;2023-05-31T21:37:52;20.40;99.90
32965;DHT22;19317;48.226;11.686;2023-05-31T21:42:43;20.50;99.90
32965;DHT22;19317;48.226;11.686;2023-05-31T21:47:33;20.40;99.90
32965;DHT22;19317;48.226;11.686;2023-05-31T21:52:23;20.30;99.90
32965;DHT22;19317;48.226;11.686;2023-05-31T21:57:14;20.10;99.90
32965;DHT22;19317;48.226;11.686;2023-05-31T22:02:05;20.10;99.90
32965;DHT22;19317;48.226;11.686;2023-05-31T22:06:55;19.70;99.90
32965;DHT22;19317;48.226;11.686;2023-05-31T22:11:46;18.60;99.90
32965;DHT22;19317;48.226;11.686;2023-05-31T22:16:36;18.70;99.90
32965;DHT22;19317;48.226;11.686;2023-05-31T22:21:27;18.40;99.90
32965;DHT22;19317;48.226;11.686;2023-05-31T22:26:19;19.10;99.90
32965;DHT22;19317;48.226;11.686;2023-05-31T22:31:10;19.30;99.90
32965;DHT22;19317;48.226;11.686;2023-05-31T22:36:00;19.20;99.90
32965;DHT22;19317;48.226;11.686;2023-05-31T22:40:51;19.20;99.90
32965;DHT22;19317;48.226;11.686;2023-05-31T22:45:41;19.20;99.90
32965;DHT22;19317;48.226;11.686;2023-05-31T22:50:32;19.20;99.90
32965;DHT22;19317;48.226;11.686;2023-05-31T22:55:22;19.10;99.90
32965;DHT22;19317;48.226;11.686;2023-05-31T23:00:13;19.10;99.90
32965;DHT22;19317;48.226;11.686;2023-05-31T23:05:04;19.00;99.90
32965;DHT22;19317;48.226;11.686;2023-05-31T23:09:55;17.90;99.90
32965;DHT22;19317;48.226;11.686;2023-05-31T23:14:45;17.70;99.90
32965;DHT22;19317;48.226;11.686;2023-05-31T23:19:35;17.70;99.90
32965;DHT22;19317;48.226;11.686;2023-05-31T23:24:26;18.20;99.90
32965;DHT22;19317;48.226;11.686;2023-05-31T23:29:16;18.40;99.90
32965;DHT22;19317;48.226;11.686;2023-05-31T23:34:07;18.40;99.90
32965;DHT22;19317;48.226;11.686;2023-05-31T23:38:57;18.10;99.90
32965;DHT22;19317;48.226;11.686;2023-05-31T23:43:48;18.20;99.90
32965;DHT22;19317;48.226;11.686;2023-05-31T23:48:38;18.30;99.90
32965;DHT22;19317;48.226;11.686;2023-05-31T23:53:29;18.40;99.90
32965;DHT22;19317;48.226;11.686;2023-05-31T23:58:19;18.30;99.90
